createdAt,value
2018-05-15T00:00:35.106Z,6.10
2018-05-15T00:01:35.087Z,6.70
2018-05-15T00:02:35.038Z,6.20
2018-05-15T00:03:35.004Z,6.50
2018-05-15T00:04:34.960Z,6.50
2018-05-15T00:05:34.953Z,6.50
2018-05-15T00:06:34.899Z,6.10
2018-05-15T00:07:34.862Z,6.40
2018-05-15T00:08:34.831Z,6.40
2018-05-15T00:09:34.803Z,6.00
2018-05-15T00:10:34.772Z,6.30
2018-05-15T00:11:34.712Z,7.00
2018-05-15T00:12:34.693Z,7.20
2018-05-15T00:13:34.647Z,7.30
2018-05-15T00:14:34.603Z,7.10
2018-05-15T00:15:34.574Z,7.10
2018-05-15T00:16:34.524Z,7.40
2018-05-15T00:17:34.502Z,7.30
2018-05-15T00:18:34.451Z,7.50
2018-05-15T00:19:34.425Z,7.70
2018-05-15T00:20:34.416Z,7.10
2018-05-15T00:21:34.347Z,7.20
2018-05-15T00:22:34.311Z,6.90
2018-05-15T00:23:34.329Z,6.50
2018-05-15T00:24:34.271Z,7.00
2018-05-15T00:25:34.212Z,7.20
2018-05-15T00:26:34.172Z,7.00
2018-05-15T00:27:34.161Z,7.50
2018-05-15T00:28:34.107Z,7.10
2018-05-15T00:29:34.079Z,7.30
2018-05-15T00:30:34.016Z,7.40
2018-05-15T00:31:34.005Z,6.80
2018-05-15T00:32:33.944Z,7.10
2018-05-15T00:33:33.946Z,6.60
2018-05-15T00:34:33.861Z,6.80
2018-05-15T00:35:33.829Z,7.60
2018-05-15T00:36:33.799Z,7.30
2018-05-15T00:37:33.753Z,7.90
2018-05-15T00:38:33.729Z,7.50
2018-05-15T00:39:33.679Z,7.30
2018-05-15T00:40:33.665Z,7.50
2018-05-15T00:41:33.631Z,7.10
2018-05-15T00:42:33.575Z,7.70
2018-05-15T00:43:33.544Z,7.30
2018-05-15T00:44:33.494Z,6.90
2018-05-15T00:45:33.471Z,7.30
2018-05-15T00:46:33.440Z,7.30
2018-05-15T00:47:33.395Z,6.80
2018-05-15T00:48:33.342Z,7.10
2018-05-15T00:49:33.314Z,6.60
2018-05-15T00:50:33.267Z,6.70
2018-05-15T00:51:33.240Z,6.80
2018-05-15T00:52:33.197Z,6.80
2018-05-15T00:53:33.168Z,7.20
2018-05-15T00:54:33.125Z,7.00
2018-05-15T00:55:33.091Z,6.60
2018-05-15T00:56:33.089Z,7.10
2018-05-15T00:57:33.013Z,7.30
2018-05-15T00:58:32.994Z,7.50
2018-05-15T00:59:32.942Z,7.50
2018-05-15T01:00:32.928Z,6.90
2018-05-15T01:01:32.882Z,7.90
2018-05-15T01:02:32.833Z,7.70
2018-05-15T01:03:32.800Z,7.20
2018-05-15T01:04:32.758Z,7.20
2018-05-15T01:05:32.716Z,7.30
2018-05-15T01:06:32.686Z,7.10
2018-05-15T01:07:32.649Z,7.60
2018-05-15T01:08:32.635Z,7.40
2018-05-15T01:09:32.575Z,7.90
2018-05-15T01:10:32.537Z,7.60
2018-05-15T01:11:32.490Z,7.20
2018-05-15T01:12:32.460Z,7.20
2018-05-15T01:13:32.459Z,6.90
2018-05-15T01:14:32.388Z,7.60
2018-05-15T01:15:32.347Z,7.50
2018-05-15T01:16:32.307Z,7.50
2018-05-15T01:17:32.287Z,7.60
2018-05-15T01:18:32.271Z,7.50
2018-05-15T01:19:32.200Z,7.40
2018-05-15T01:20:32.246Z,7.40
2018-05-15T01:21:32.119Z,7.40
2018-05-15T01:22:32.097Z,7.60
2018-05-15T01:23:32.050Z,8.20
2018-05-15T01:24:32.028Z,8.00
2018-05-15T01:25:31.979Z,7.30
2018-05-15T01:26:31.934Z,7.40
2018-05-15T01:27:31.904Z,7.60
2018-05-15T01:28:31.876Z,7.20
2018-05-15T01:29:31.822Z,7.50
2018-05-15T01:30:31.822Z,7.60
2018-05-15T01:31:31.778Z,7.30
2018-05-15T01:32:31.733Z,7.60
2018-05-15T01:33:31.702Z,7.70
2018-05-15T01:34:31.633Z,7.10
2018-05-15T01:35:31.611Z,7.50
2018-05-15T01:36:31.566Z,8.40
2018-05-15T01:37:31.531Z,7.80
2018-05-15T01:38:31.508Z,7.90
2018-05-15T01:39:31.449Z,8.50
2018-05-15T01:40:31.414Z,7.90
2018-05-15T01:41:31.371Z,8.30
2018-05-15T01:42:31.341Z,8.40
2018-05-15T01:43:31.295Z,8.20
2018-05-15T01:44:31.290Z,7.90
2018-05-15T01:45:31.837Z,8.00
2018-05-15T01:46:31.190Z,8.20
2018-05-15T01:47:31.156Z,8.30
2018-05-15T01:48:31.111Z,8.30
2018-05-15T01:49:31.060Z,8.20
2018-05-15T01:50:31.058Z,8.20
2018-05-15T01:51:30.983Z,7.90
2018-05-15T01:52:30.966Z,8.40
2018-05-15T01:53:30.919Z,8.20
2018-05-15T01:54:30.882Z,8.40
2018-05-15T01:55:30.847Z,8.00
2018-05-15T01:56:30.812Z,7.80
2018-05-15T01:57:30.805Z,8.10
2018-05-15T01:58:30.753Z,8.30
2018-05-15T01:59:30.709Z,8.10
2018-05-15T02:00:30.675Z,8.30
2018-05-15T02:01:30.643Z,8.80
2018-05-15T02:02:30.579Z,8.20
2018-05-15T02:03:30.557Z,8.20
2018-05-15T02:04:30.505Z,8.70
2018-05-15T02:05:30.478Z,7.80
2018-05-15T02:06:30.447Z,8.20
2018-05-15T02:07:30.401Z,8.30
2018-05-15T02:08:30.386Z,9.00
2018-05-15T02:09:30.336Z,8.80
2018-05-15T02:10:30.323Z,8.80
2018-05-15T02:11:30.293Z,9.10
2018-05-15T02:12:30.222Z,8.30
2018-05-15T02:13:30.187Z,8.20
2018-05-15T02:14:30.153Z,8.30
2018-05-15T02:15:30.140Z,9.10
2018-05-15T02:16:30.850Z,8.30
2018-05-15T02:17:30.095Z,8.80
2018-05-15T02:18:29.992Z,8.50
2018-05-15T02:19:29.958Z,8.70
2018-05-15T02:20:29.934Z,8.50
2018-05-15T02:21:29.889Z,8.40
2018-05-15T02:22:29.841Z,9.10
2018-05-15T02:23:29.824Z,8.60
2018-05-15T02:24:29.782Z,8.20
2018-05-15T02:25:29.742Z,9.50
2018-05-15T02:26:29.689Z,8.60
2018-05-15T02:27:29.693Z,8.50
2018-05-15T02:28:29.617Z,8.70
2018-05-15T02:29:29.575Z,9.20
2018-05-15T02:30:29.645Z,9.10
2018-05-15T02:31:29.514Z,9.80
2018-05-15T02:32:29.464Z,8.80
2018-05-15T02:33:29.433Z,9.70
2018-05-15T02:34:29.383Z,8.50
2018-05-15T02:35:29.407Z,8.80
2018-05-15T02:36:29.321Z,9.00
2018-05-15T02:37:29.308Z,9.00
2018-05-15T02:38:29.280Z,9.80
2018-05-15T02:39:29.206Z,9.30
2018-05-15T02:40:29.197Z,8.90
2018-05-15T02:41:29.148Z,9.10
2018-05-15T02:42:29.082Z,9.50
2018-05-15T02:43:29.079Z,9.60
2018-05-15T02:44:29.020Z,9.40
2018-05-15T02:45:29.004Z,9.10
2018-05-15T02:46:28.987Z,9.50
2018-05-15T02:47:28.906Z,9.60
2018-05-15T02:48:28.849Z,9.20
2018-05-15T02:49:28.833Z,9.60
2018-05-15T02:50:28.780Z,9.30
2018-05-15T02:51:28.748Z,9.90
2018-05-15T02:52:28.730Z,9.80
2018-05-15T02:53:28.661Z,10.10
2018-05-15T02:54:28.649Z,10.30
2018-05-15T02:55:28.584Z,10.10
2018-05-15T02:56:28.546Z,9.90
2018-05-15T02:57:28.571Z,9.60
2018-05-15T02:58:28.500Z,9.90
2018-05-15T02:59:28.465Z,9.80
2018-05-15T03:00:28.405Z,9.30
2018-05-15T03:01:28.377Z,10.00
2018-05-15T03:02:28.869Z,9.30
2018-05-15T03:03:28.317Z,10.10
2018-05-15T03:04:28.272Z,9.70
2018-05-15T03:05:28.217Z,9.80
2018-05-15T03:06:28.168Z,9.90
2018-05-15T03:07:28.142Z,9.80
2018-05-15T03:08:28.123Z,9.40
2018-05-15T03:09:28.072Z,9.40
2018-05-15T03:10:28.052Z,10.00
2018-05-15T03:11:28.015Z,9.30
2018-05-15T03:12:27.939Z,9.30
2018-05-15T03:13:27.925Z,9.60
2018-05-15T03:14:27.895Z,9.70
2018-05-15T03:15:27.866Z,9.60
2018-05-15T03:16:27.785Z,9.30
2018-05-15T03:17:27.789Z,9.60
2018-05-15T03:18:27.722Z,10.20
2018-05-15T03:19:27.703Z,9.80
2018-05-15T03:20:27.635Z,10.20
2018-05-15T03:21:27.589Z,10.70
2018-05-15T03:22:27.574Z,10.30
2018-05-15T03:23:27.517Z,9.80
2018-05-15T03:24:27.534Z,10.00
2018-05-15T03:25:27.439Z,9.70
2018-05-15T03:26:27.452Z,10.60
2018-05-15T03:27:27.389Z,10.40
2018-05-15T03:28:27.371Z,11.00
2018-05-15T03:29:27.317Z,9.80
2018-05-15T03:30:27.275Z,10.40
2018-05-15T03:31:27.257Z,10.30
2018-05-15T03:32:27.211Z,10.70
2018-05-15T03:33:27.188Z,9.40
2018-05-15T03:34:27.151Z,9.60
2018-05-15T03:35:27.088Z,10.00
2018-05-15T03:36:27.092Z,10.50
2018-05-15T03:37:26.992Z,11.30
2018-05-15T03:38:26.990Z,10.70
2018-05-15T03:39:26.951Z,10.20
2018-05-15T03:40:26.905Z,10.40
2018-05-15T03:41:26.834Z,11.20
2018-05-15T03:42:26.810Z,11.30
2018-05-15T03:43:27.363Z,11.10
2018-05-15T03:44:26.730Z,12.00
2018-05-15T03:45:26.733Z,11.60
2018-05-15T03:46:26.631Z,11.50
2018-05-15T03:47:26.617Z,11.90
2018-05-15T03:48:26.626Z,11.60
2018-05-15T03:49:26.550Z,11.60
2018-05-15T03:50:26.516Z,11.80
2018-05-15T03:51:26.497Z,11.70
2018-05-15T03:52:26.445Z,11.60
2018-05-15T03:53:26.399Z,11.00
2018-05-15T03:54:26.342Z,10.60
2018-05-15T03:55:26.345Z,11.60
2018-05-15T03:56:26.278Z,11.40
2018-05-15T03:57:26.259Z,12.20
2018-05-15T03:58:26.222Z,11.10
2018-05-15T03:59:26.176Z,11.60
2018-05-15T04:00:26.101Z,12.40
2018-05-15T04:01:26.096Z,11.40
2018-05-15T04:02:26.052Z,11.20
2018-05-15T04:03:26.072Z,12.40
2018-05-15T04:04:25.963Z,12.40
2018-05-15T04:05:25.928Z,13.20
2018-05-15T04:06:25.919Z,12.70
2018-05-15T04:07:25.848Z,11.50
2018-05-15T04:08:25.794Z,11.90
2018-05-15T04:09:25.770Z,12.60
2018-05-15T04:10:25.772Z,11.80
2018-05-15T04:11:25.676Z,12.70
2018-05-15T04:12:25.659Z,13.80
2018-05-15T04:13:25.637Z,14.10
2018-05-15T04:14:25.590Z,14.10
2018-05-15T04:15:25.569Z,13.10
2018-05-15T04:16:25.491Z,13.30
2018-05-15T04:17:25.550Z,12.90
2018-05-15T04:18:25.440Z,13.50
2018-05-15T04:19:25.395Z,11.80
2018-05-15T04:20:25.372Z,12.50
2018-05-15T04:21:25.304Z,12.90
2018-05-15T04:22:25.270Z,13.20
2018-05-15T04:23:25.269Z,12.70
2018-05-15T04:24:25.253Z,12.20
2018-05-15T04:25:25.141Z,13.00
2018-05-15T04:26:25.111Z,12.90
2018-05-15T04:27:25.075Z,12.60
2018-05-15T04:28:25.070Z,11.80
2018-05-15T04:29:25.025Z,11.70
2018-05-15T04:30:24.968Z,12.20
2018-05-15T04:31:24.926Z,11.90
2018-05-15T04:32:24.903Z,12.30
2018-05-15T04:33:24.840Z,11.40
2018-05-15T04:34:24.818Z,11.80
2018-05-15T04:35:24.806Z,12.30
2018-05-15T04:36:24.718Z,12.80
2018-05-15T04:37:24.708Z,12.00
2018-05-15T04:38:24.659Z,11.70
2018-05-15T04:39:26.463Z,12.00
2018-05-15T04:40:24.570Z,13.00
2018-05-15T04:41:24.556Z,13.10
2018-05-15T04:42:24.506Z,13.90
2018-05-15T04:43:24.467Z,12.60
2018-05-15T04:44:24.461Z,12.50
2018-05-15T04:45:24.400Z,12.30
2018-05-15T04:46:24.351Z,12.20
2018-05-15T04:47:24.363Z,12.80
2018-05-15T04:48:24.270Z,11.70
2018-05-15T04:49:24.262Z,12.60
2018-05-15T04:50:24.202Z,12.60
2018-05-15T04:51:24.197Z,12.90
2018-05-15T04:52:24.124Z,12.20
2018-05-15T04:53:24.079Z,12.50
2018-05-15T04:54:24.057Z,11.90
2018-05-15T04:55:24.032Z,11.90
2018-05-15T04:56:23.976Z,11.80
2018-05-15T04:57:23.931Z,12.20
2018-05-15T04:58:23.918Z,12.40
2018-05-15T04:59:23.884Z,12.00
2018-05-15T05:00:23.829Z,12.20
2018-05-15T05:01:23.790Z,11.60
2018-05-15T05:02:23.741Z,12.60
2018-05-15T05:03:23.695Z,13.10
2018-05-15T05:04:23.679Z,12.00
2018-05-15T05:05:23.620Z,12.60
2018-05-15T05:06:23.595Z,12.70
2018-05-15T05:07:23.585Z,12.70
2018-05-15T05:08:23.534Z,12.60
2018-05-15T05:09:23.546Z,11.60
2018-05-15T05:10:23.482Z,11.90
2018-05-15T05:11:23.459Z,12.20
2018-05-15T05:12:23.440Z,11.10
2018-05-15T05:13:23.377Z,11.50
2018-05-15T05:14:23.319Z,11.40
2018-05-15T05:15:23.355Z,10.90
2018-05-15T05:16:23.261Z,10.10
2018-05-15T05:17:23.194Z,9.60
2018-05-15T05:18:23.170Z,9.80
2018-05-15T05:19:23.119Z,9.50
2018-05-15T05:20:23.128Z,8.90
2018-05-15T05:21:23.056Z,8.90
2018-05-15T05:22:23.050Z,9.40
2018-05-15T05:23:23.029Z,9.10
2018-05-15T05:24:23.005Z,9.40
2018-05-15T05:25:22.921Z,9.90
2018-05-15T05:26:22.875Z,9.60
2018-05-15T05:27:22.918Z,9.90
2018-05-15T05:28:22.811Z,10.00
2018-05-15T05:29:22.792Z,9.70
2018-05-15T05:30:22.766Z,9.60
2018-05-15T05:31:22.724Z,11.20
2018-05-15T05:32:22.669Z,11.90
2018-05-15T05:33:22.770Z,12.10
2018-05-15T05:34:22.620Z,13.00
2018-05-15T05:35:22.612Z,14.30
2018-05-15T05:36:22.595Z,14.90
2018-05-15T05:37:22.497Z,13.70
2018-05-15T05:38:22.482Z,14.90
2018-05-15T05:39:22.449Z,12.60
2018-05-15T05:40:22.414Z,11.70
2018-05-15T05:41:22.384Z,12.20
2018-05-15T05:42:22.338Z,11.70
2018-05-15T05:43:22.301Z,11.40
2018-05-15T05:44:22.281Z,11.80
2018-05-15T05:45:22.261Z,11.90
2018-05-15T05:46:22.235Z,12.00
2018-05-15T05:47:22.170Z,11.70
2018-05-15T05:48:22.134Z,11.90
2018-05-15T05:49:22.110Z,12.00
2018-05-15T05:50:22.067Z,11.00
2018-05-15T05:51:22.058Z,10.50
2018-05-15T05:52:22.008Z,10.20
2018-05-15T05:53:21.981Z,10.60
2018-05-15T05:54:21.948Z,10.50
2018-05-15T05:55:21.909Z,10.70
2018-05-15T05:56:21.888Z,11.00
2018-05-15T05:57:21.836Z,10.20
2018-05-15T05:58:21.794Z,9.90
2018-05-15T05:59:21.761Z,9.50
2018-05-15T06:00:21.728Z,9.00
2018-05-15T06:01:21.728Z,9.40
2018-05-15T06:02:21.670Z,9.00
2018-05-15T06:03:21.636Z,9.20
2018-05-15T06:04:21.597Z,9.60
2018-05-15T06:05:21.558Z,9.50
2018-05-15T06:06:23.492Z,9.10
2018-05-15T06:07:21.623Z,8.70
2018-05-15T06:08:21.496Z,9.60
2018-05-15T06:09:21.422Z,9.20
2018-05-15T06:10:21.417Z,9.20
2018-05-15T06:11:21.395Z,8.60
2018-05-15T06:12:21.325Z,9.80
2018-05-15T06:13:21.314Z,9.20
2018-05-15T06:14:21.360Z,8.90
2018-05-15T06:15:21.257Z,8.80
2018-05-15T06:16:21.229Z,8.40
2018-05-15T06:17:21.216Z,8.90
2018-05-15T06:18:21.136Z,8.40
2018-05-15T06:19:21.098Z,8.70
2018-05-15T06:20:21.076Z,8.50
2018-05-15T06:21:21.114Z,8.60
2018-05-15T06:22:21.035Z,8.50
2018-05-15T06:23:20.961Z,8.70
2018-05-15T06:24:20.965Z,8.60
2018-05-15T06:25:20.930Z,8.80
2018-05-15T06:26:20.879Z,8.50
2018-05-15T06:27:20.855Z,8.70
2018-05-15T06:28:20.813Z,8.50
2018-05-15T06:29:20.791Z,8.60
2018-05-15T06:30:21.410Z,8.30
2018-05-15T06:31:20.724Z,8.30
2018-05-15T06:32:20.740Z,7.90
2018-05-15T06:33:20.716Z,8.50
2018-05-15T06:34:20.607Z,8.80
2018-05-15T06:35:20.570Z,8.40
2018-05-15T06:36:20.584Z,8.10
2018-05-15T06:37:20.506Z,8.50
2018-05-15T06:38:20.495Z,8.70
2018-05-15T06:39:20.559Z,8.20
2018-05-15T06:40:20.444Z,8.50
2018-05-15T06:41:20.414Z,8.60
2018-05-15T06:42:20.355Z,8.20
2018-05-15T06:43:20.313Z,8.20
2018-05-15T06:44:20.310Z,8.00
2018-05-15T06:45:20.266Z,8.50
2018-05-15T06:46:20.221Z,9.10
2018-05-15T06:47:20.189Z,8.30
2018-05-15T06:48:20.189Z,8.50
2018-05-15T06:49:20.143Z,8.00
2018-05-15T06:50:20.108Z,8.80
2018-05-15T06:51:20.062Z,8.60
2018-05-15T06:52:20.033Z,8.30
2018-05-15T06:53:19.995Z,8.90
2018-05-15T06:54:19.989Z,8.50
2018-05-15T06:55:19.942Z,8.50
2018-05-15T06:56:19.928Z,8.70
2018-05-15T06:57:19.876Z,8.90
2018-05-15T06:58:19.933Z,8.60
2018-05-15T06:59:19.818Z,8.50
2018-05-15T07:00:19.798Z,8.30
2018-05-15T07:01:19.836Z,8.40
2018-05-15T07:02:19.748Z,8.10
2018-05-15T07:03:19.736Z,9.30
2018-05-15T07:04:19.688Z,8.70
2018-05-15T07:05:19.650Z,8.60
2018-05-15T07:06:19.682Z,8.50
2018-05-15T07:07:19.562Z,8.80
2018-05-15T07:08:19.612Z,8.30
2018-05-15T07:09:19.524Z,8.40
2018-05-15T07:10:19.484Z,8.20
2018-05-15T07:11:19.444Z,7.90
2018-05-15T07:12:19.449Z,8.00
2018-05-15T07:13:19.437Z,8.40
2018-05-15T07:14:19.366Z,8.10
2018-05-15T07:15:19.349Z,7.50
2018-05-15T07:16:19.302Z,8.10
2018-05-15T07:17:19.273Z,7.40
2018-05-15T07:18:19.261Z,7.60
2018-05-15T07:19:19.203Z,7.50
2018-05-15T07:20:19.184Z,7.80
2018-05-15T07:21:19.159Z,7.40
2018-05-15T07:22:19.128Z,7.10
2018-05-15T07:23:19.108Z,8.10
2018-05-15T07:24:19.104Z,7.00
2018-05-15T07:25:19.062Z,7.10
2018-05-15T07:26:19.053Z,7.10
2018-05-15T07:27:19.092Z,6.70
2018-05-15T07:28:18.969Z,7.00
2018-05-15T07:29:18.971Z,7.30
2018-05-15T07:30:18.934Z,7.40
2018-05-15T07:31:18.881Z,7.20
2018-05-15T07:32:18.852Z,7.20
2018-05-15T07:33:18.829Z,7.40
2018-05-15T07:34:18.792Z,7.20
2018-05-15T07:35:18.784Z,6.90
2018-05-15T07:36:18.757Z,7.30
2018-05-15T07:37:18.723Z,7.50
2018-05-15T07:38:18.709Z,7.50
2018-05-15T07:39:18.669Z,7.30
2018-05-15T07:40:18.679Z,7.40
2018-05-15T07:41:18.618Z,6.90
2018-05-15T07:42:18.575Z,7.60
2018-05-15T07:43:18.557Z,7.40
2018-05-15T07:44:18.519Z,7.60
2018-05-15T07:45:18.515Z,7.40
2018-05-15T07:46:18.466Z,7.10
2018-05-15T07:47:18.472Z,7.30
2018-05-15T07:48:18.429Z,7.20
2018-05-15T07:49:18.385Z,6.50
2018-05-15T07:50:18.368Z,6.70
2018-05-15T07:51:18.354Z,8.20
2018-05-15T07:52:18.296Z,7.60
2018-05-15T07:53:18.284Z,7.30
2018-05-15T07:54:18.245Z,7.60
2018-05-15T07:55:18.198Z,7.70
2018-05-15T07:56:18.185Z,7.50
2018-05-15T07:57:18.167Z,7.50
2018-05-15T07:58:18.144Z,7.20
2018-05-15T07:59:18.089Z,7.80
2018-05-15T08:00:18.089Z,7.80
2018-05-15T08:01:18.095Z,7.50
2018-05-15T08:02:18.026Z,7.90
2018-05-15T08:03:17.998Z,7.70
2018-05-15T08:04:18.018Z,7.60
2018-05-15T08:05:17.919Z,7.50
2018-05-15T08:06:17.896Z,7.20
2018-05-15T08:07:17.869Z,7.50
2018-05-15T08:08:17.845Z,7.50
2018-05-15T08:09:17.822Z,8.20
2018-05-15T08:10:17.780Z,7.70
2018-05-15T08:11:17.818Z,8.40
2018-05-15T08:12:17.782Z,7.30
2018-05-15T08:13:17.705Z,7.60
2018-05-15T08:14:17.668Z,7.10
2018-05-15T08:15:17.642Z,7.40
2018-05-15T08:16:17.659Z,7.50
2018-05-15T08:17:17.585Z,7.70
2018-05-15T08:18:17.558Z,7.60
2018-05-15T08:19:17.535Z,8.20
2018-05-15T08:20:17.493Z,7.40
2018-05-15T08:21:17.497Z,7.60
2018-05-15T08:22:17.527Z,7.40
2018-05-15T08:23:17.442Z,8.10
2018-05-15T08:24:17.424Z,7.40
2018-05-15T08:25:17.382Z,6.80
2018-05-15T08:26:17.336Z,7.50
2018-05-15T08:27:17.327Z,7.10
2018-05-15T08:28:17.303Z,7.00
2018-05-15T08:29:17.259Z,6.90
2018-05-15T08:30:17.241Z,7.10
2018-05-15T08:31:17.201Z,7.10
2018-05-15T08:32:17.166Z,6.80
2018-05-15T08:33:17.141Z,7.50
2018-05-15T08:34:17.118Z,7.20
2018-05-15T08:35:17.126Z,6.80
2018-05-15T08:36:17.083Z,7.30
2018-05-15T08:37:17.061Z,7.00
2018-05-15T08:38:16.997Z,6.70
2018-05-15T08:39:16.969Z,6.30
2018-05-15T08:40:16.972Z,6.30
2018-05-15T08:41:16.916Z,6.60
2018-05-15T08:42:16.894Z,7.10
2018-05-15T08:43:16.923Z,6.90
2018-05-15T08:44:16.854Z,6.80
2018-05-15T08:45:16.821Z,6.40
2018-05-15T08:46:16.818Z,6.70
2018-05-15T08:47:16.747Z,6.80
2018-05-15T08:48:16.768Z,6.40
2018-05-15T08:49:16.709Z,6.60
2018-05-15T08:50:16.726Z,6.10
2018-05-15T08:51:16.666Z,6.60
2018-05-15T08:52:16.629Z,6.40
2018-05-15T08:53:16.622Z,5.90
2018-05-15T08:54:16.571Z,6.50
2018-05-15T08:55:16.572Z,6.30
2018-05-15T08:56:16.533Z,6.10
2018-05-15T08:57:16.486Z,5.80
2018-05-15T08:58:16.465Z,6.20
2018-05-15T08:59:16.445Z,5.80
2018-05-15T09:00:16.419Z,6.00
2018-05-15T09:01:16.415Z,5.90
2018-05-15T09:02:16.361Z,6.00
2018-05-15T09:03:16.324Z,6.00
2018-05-15T09:04:16.313Z,5.30
2018-05-15T09:05:16.280Z,5.70
2018-05-15T09:06:16.236Z,5.70
2018-05-15T09:07:16.220Z,5.10
2018-05-15T09:08:16.232Z,5.40
2018-05-15T09:09:16.178Z,5.40
2018-05-15T09:10:16.132Z,5.60
2018-05-15T09:11:16.128Z,5.10
2018-05-15T09:12:16.099Z,4.90
2018-05-15T09:13:16.108Z,5.50
2018-05-15T09:14:16.033Z,5.30
2018-05-15T09:15:16.040Z,4.90
2018-05-15T09:16:15.980Z,5.70
2018-05-15T09:17:15.958Z,5.70
2018-05-15T09:18:15.928Z,5.70
2018-05-15T09:19:16.027Z,5.70
2018-05-15T09:20:15.907Z,5.50
2018-05-15T09:21:15.848Z,5.40
2018-05-15T09:22:15.806Z,5.50
2018-05-15T09:23:15.788Z,5.70
2018-05-15T09:24:15.766Z,5.30
2018-05-15T09:25:15.725Z,5.60
2018-05-15T09:26:15.719Z,5.70
2018-05-15T09:27:15.675Z,5.30
2018-05-15T09:28:15.675Z,5.10
2018-05-15T09:29:15.715Z,5.30
2018-05-15T09:30:15.578Z,5.60
2018-05-15T09:31:15.576Z,5.60
2018-05-15T09:32:15.544Z,5.30
2018-05-15T09:33:15.518Z,5.30
2018-05-15T09:34:15.470Z,5.10
2018-05-15T09:35:15.441Z,5.80
2018-05-15T09:36:15.442Z,5.50
2018-05-15T09:37:15.406Z,4.90
2018-05-15T09:38:15.352Z,4.80
2018-05-15T09:39:15.350Z,5.50
2018-05-15T09:40:15.319Z,5.40
2018-05-15T09:41:15.277Z,4.80
2018-05-15T09:42:15.248Z,4.90
2018-05-15T09:43:15.262Z,4.70
2018-05-15T09:44:15.203Z,4.70
2018-05-15T09:45:15.194Z,5.50
2018-05-15T09:46:15.144Z,5.90
2018-05-15T09:47:15.137Z,5.30
2018-05-15T09:48:15.129Z,5.60
2018-05-15T09:49:15.083Z,5.50
2018-05-15T09:50:15.128Z,5.00
2018-05-15T09:51:14.999Z,4.90
2018-05-15T09:52:15.072Z,4.90
2018-05-15T09:53:14.950Z,4.80
2018-05-15T09:54:14.925Z,4.90
2018-05-15T09:55:14.918Z,4.90
2018-05-15T09:56:14.862Z,5.30
2018-05-15T09:57:14.849Z,4.90
2018-05-15T09:58:14.803Z,5.00
2018-05-15T09:59:14.813Z,5.10
2018-05-15T10:00:14.755Z,5.50
2018-05-15T10:01:14.745Z,5.10
2018-05-15T10:02:14.737Z,5.20
2018-05-15T10:03:14.676Z,5.50
2018-05-15T10:04:14.661Z,5.50
2018-05-15T10:05:14.645Z,5.50
2018-05-15T10:06:14.611Z,5.50
2018-05-15T10:07:14.592Z,5.30
2018-05-15T10:08:14.592Z,5.40
2018-05-15T10:09:14.549Z,5.40
2018-05-15T10:10:14.527Z,5.40
2018-05-15T10:11:14.503Z,5.30
2018-05-15T10:12:14.488Z,5.30
2018-05-15T10:13:14.451Z,5.60
2018-05-15T10:14:14.465Z,5.40
2018-05-15T10:15:14.401Z,5.50
2018-05-15T10:16:14.372Z,5.40
2018-05-15T10:17:14.357Z,5.20
2018-05-15T10:18:14.315Z,5.20
2018-05-15T10:19:14.294Z,5.90
2018-05-15T10:20:14.266Z,5.90
2018-05-15T10:21:14.289Z,5.90
2018-05-15T10:22:14.211Z,5.50
2018-05-15T10:23:14.212Z,5.60
2018-05-15T10:24:14.166Z,5.90
2018-05-15T10:25:14.137Z,5.80
2018-05-15T10:26:14.209Z,6.10
2018-05-15T10:27:14.100Z,5.70
2018-05-15T10:28:14.092Z,6.20
2018-05-15T10:29:14.063Z,5.40
2018-05-15T10:30:14.055Z,6.00
2018-05-15T10:31:14.024Z,5.90
2018-05-15T10:32:14.090Z,6.10
2018-05-15T10:33:13.945Z,6.00
2018-05-15T10:34:13.922Z,5.80
2018-05-15T10:35:13.919Z,5.50
2018-05-15T10:36:13.871Z,5.90
2018-05-15T10:37:13.861Z,5.90
2018-05-15T10:38:13.836Z,6.20
2018-05-15T10:39:13.797Z,6.00
2018-05-15T10:40:13.775Z,6.00
2018-05-15T10:41:14.102Z,6.90
2018-05-15T10:42:13.720Z,6.60
2018-05-15T10:43:13.715Z,6.00
2018-05-15T10:44:13.735Z,6.10
2018-05-15T10:45:13.680Z,6.70
2018-05-15T10:46:13.663Z,5.80
2018-05-15T10:47:13.604Z,5.80
2018-05-15T10:48:13.609Z,5.70
2018-05-15T10:49:13.582Z,6.00
2018-05-15T10:50:13.599Z,5.70
2018-05-15T10:51:13.518Z,5.30
2018-05-15T10:52:13.523Z,5.40
2018-05-15T10:53:13.460Z,5.60
2018-05-15T10:54:13.502Z,5.40
2018-05-15T10:55:13.441Z,5.30
2018-05-15T10:56:13.411Z,5.00
2018-05-15T10:57:13.376Z,5.50
2018-05-15T10:58:13.353Z,5.40
2018-05-15T10:59:13.318Z,5.10
2018-05-15T11:00:13.292Z,5.00
2018-05-15T11:01:13.261Z,5.20
2018-05-15T11:02:13.235Z,5.00
2018-05-15T11:03:13.229Z,5.00
2018-05-15T11:04:13.198Z,4.90
2018-05-15T11:05:13.173Z,5.30
2018-05-15T11:06:13.164Z,5.10
2018-05-15T11:07:13.168Z,5.30
2018-05-15T11:08:13.113Z,4.80
2018-05-15T11:09:13.088Z,5.20
2018-05-15T11:10:13.061Z,5.20
2018-05-15T11:11:13.033Z,5.10
2018-05-15T11:12:13.013Z,5.00
2018-05-15T11:13:12.980Z,5.80
2018-05-15T11:14:12.950Z,5.80
2018-05-15T11:15:12.917Z,5.80
2018-05-15T11:16:12.899Z,6.30
2018-05-15T11:17:12.953Z,6.70
2018-05-15T11:18:12.866Z,7.00
2018-05-15T11:19:12.832Z,6.80
2018-05-15T11:20:12.828Z,6.50
2018-05-15T11:21:12.776Z,6.70
2018-05-15T11:22:12.760Z,7.10
2018-05-15T11:23:12.718Z,7.40
2018-05-15T11:24:12.716Z,6.90
2018-05-15T11:25:12.657Z,7.00
2018-05-15T11:26:12.634Z,6.90
2018-05-15T11:27:12.620Z,6.90
2018-05-15T11:28:12.593Z,6.70
2018-05-15T11:29:12.549Z,6.90
2018-05-15T11:30:12.536Z,6.90
2018-05-15T11:31:12.501Z,7.10
2018-05-15T11:32:12.494Z,6.50
2018-05-15T11:33:12.458Z,6.80
2018-05-15T11:34:12.427Z,6.80
2018-05-15T11:35:12.429Z,6.30
2018-05-15T11:36:12.392Z,6.70
2018-05-15T11:37:12.345Z,6.30
2018-05-15T11:38:12.313Z,6.50
2018-05-15T11:39:12.296Z,6.70
2018-05-15T11:40:12.263Z,6.50
2018-05-15T11:41:12.243Z,6.60
2018-05-15T11:42:12.219Z,6.60
2018-05-15T11:43:12.201Z,6.40
2018-05-15T11:44:12.166Z,6.50
2018-05-15T11:45:12.138Z,7.30
2018-05-15T11:46:12.096Z,6.90
2018-05-15T11:47:12.131Z,6.90
2018-05-15T11:48:12.429Z,6.80
2018-05-15T11:49:12.702Z,7.80
2018-05-15T11:50:12.800Z,7.50
2018-05-15T11:51:12.797Z,8.10
2018-05-15T11:52:12.545Z,8.20
2018-05-15T11:53:12.768Z,7.40
2018-05-15T11:54:11.873Z,7.50
2018-05-15T11:55:11.848Z,7.50
2018-05-15T11:56:11.854Z,7.10
2018-05-15T11:57:11.797Z,7.30
2018-05-15T11:58:11.838Z,7.30
2018-05-15T11:59:11.741Z,6.70
2018-05-15T12:00:11.707Z,6.60
2018-05-15T12:01:11.694Z,7.00
2018-05-15T12:02:11.638Z,6.40
2018-05-15T12:03:11.628Z,6.60
2018-05-15T12:04:11.668Z,6.50
2018-05-15T12:05:12.045Z,6.00
2018-05-15T12:06:11.529Z,6.50
2018-05-15T12:07:11.487Z,6.40
2018-05-15T12:08:11.560Z,6.80
2018-05-15T12:09:11.455Z,6.00
2018-05-15T12:10:11.417Z,6.70
2018-05-15T12:11:11.393Z,6.50
2018-05-15T12:12:11.352Z,6.10
2018-05-15T12:13:11.321Z,5.90
2018-05-15T12:14:11.325Z,5.90
2018-05-15T12:15:11.336Z,6.30
2018-05-15T12:16:11.319Z,6.10
2018-05-15T12:17:11.244Z,6.00
2018-05-15T12:18:11.206Z,6.10
2018-05-15T12:19:11.183Z,6.00
2018-05-15T12:20:11.145Z,6.30
2018-05-15T12:21:11.237Z,6.20
2018-05-15T12:22:11.112Z,5.80
2018-05-15T12:23:11.072Z,5.90
2018-05-15T12:24:11.117Z,6.10
2018-05-15T12:25:11.029Z,5.60
2018-05-15T12:26:11.003Z,6.10
2018-05-15T12:27:11.019Z,6.20
2018-05-15T12:28:10.993Z,5.90
2018-05-15T12:29:10.949Z,5.90
2018-05-15T12:30:10.896Z,5.60
2018-05-15T12:31:10.882Z,6.30
2018-05-15T12:32:10.869Z,6.50
2018-05-15T12:33:10.845Z,6.50
2018-05-15T12:34:10.847Z,6.00
2018-05-15T12:35:10.805Z,6.10
2018-05-15T12:36:10.798Z,6.40
2018-05-15T12:37:10.821Z,6.60
2018-05-15T12:38:10.715Z,5.70
2018-05-15T12:39:10.696Z,6.10
2018-05-15T12:40:10.675Z,6.10
2018-05-15T12:41:10.725Z,5.80
2018-05-15T12:42:10.914Z,5.80
2018-05-15T12:43:10.614Z,6.20
2018-05-15T12:44:10.614Z,6.40
2018-05-15T12:45:10.576Z,6.40
2018-05-15T12:46:10.534Z,6.80
2018-05-15T12:47:10.526Z,6.70
2018-05-15T12:48:10.530Z,6.40
2018-05-15T12:49:10.467Z,6.00
2018-05-15T12:50:10.440Z,7.00
2018-05-15T12:51:10.416Z,6.50
2018-05-15T12:52:10.397Z,6.80
2018-05-15T12:53:10.376Z,7.10
2018-05-15T12:54:10.372Z,6.30
2018-05-15T12:55:10.328Z,6.50
2018-05-15T12:56:10.323Z,6.30
2018-05-15T12:57:10.283Z,6.70
2018-05-15T12:58:10.277Z,7.80
2018-05-15T12:59:10.244Z,6.40
2018-05-15T13:00:10.205Z,5.70
2018-05-15T13:01:10.184Z,6.10
2018-05-15T13:02:10.153Z,6.20
2018-05-15T13:03:10.138Z,6.10
2018-05-15T13:04:10.122Z,6.20
2018-05-15T13:05:10.088Z,6.10
2018-05-15T13:06:10.078Z,6.00
2018-05-15T13:07:10.039Z,6.10
2018-05-15T13:08:10.021Z,6.00
2018-05-15T13:09:10.006Z,6.00
2018-05-15T13:10:09.992Z,6.50
2018-05-15T13:11:09.967Z,6.00
2018-05-15T13:12:09.926Z,6.20
2018-05-15T13:13:09.907Z,6.30